Time;durP1;ratioP1;P1;durP2;ratioP2;P2;SDS_P1;SDS_P2;PMS_P1;PMS_P2;Temp;Humidity;BMP_temperature;BMP_pressure;BME280_temperature;BME280_humidity;BME280_pressure;Samples;Min_cycle;Max_cycle;Signal;HPM_P1;HPM_P2
2022/12/01 00:00:08;;;;;;;27.47;20.90;;;9.10;99.90;;;;;;5088095;28;20443;-73
2022/12/01 00:02:35;;;;;;;32.30;21.13;;;9.10;99.90;;;;;;5085900;28;20520;-74
2022/12/01 00:05:02;;;;;;;30.00;21.00;;;9.10;99.90;;;;;;5086303;28;20450;-74
2022/12/01 00:07:29;;;;;;;28.30;20.73;;;9.10;99.90;;;;;;5088565;28;20446;-74
2022/12/01 00:12:53;;;;;;;26.20;20.33;;;9.10;99.90;;;;;;5023351;28;20532;-74
2022/12/01 00:15:20;;;;;;;29.43;20.90;;;9.00;99.90;;;;;;5069231;28;20498;-74
2022/12/01 00:17:47;;;;;;;28.17;19.57;;;9.00;99.90;;;;;;5083226;28;20457;-74
2022/12/01 00:20:15;;;;;;;28.37;20.50;;;9.00;99.90;;;;;;5084823;28;20447;-74
2022/12/01 00:22:43;;;;;;;30.13;21.30;;;9.10;99.90;;;;;;5088098;28;20466;-74
2022/12/01 00:25:10;;;;;;;31.27;20.67;;;9.00;99.90;;;;;;5088639;28;20432;-74
2022/12/01 00:27:37;;;;;;;28.47;20.10;;;9.00;99.90;;;;;;5089308;28;20459;-74
2022/12/01 00:30:08;;;;;;;27.33;20.13;;;9.00;99.90;;;;;;5092301;28;20443;-74
2022/12/01 00:32:34;;;;;;;27.50;19.70;;;9.00;99.90;;;;;;5094023;28;20475;-74
2022/12/01 00:35:01;;;;;;;29.30;19.50;;;9.00;99.90;;;;;;5093143;28;20467;-74
2022/12/01 00:37:30;;;;;;;26.97;20.60;;;9.00;99.90;;;;;;5088174;28;20456;-74
2022/12/01 00:39:57;;;;;;;26.87;20.07;;;9.00;99.90;;;;;;5084758;28;20855;-74
2022/12/01 00:42:24;;;;;;;26.20;20.13;;;9.00;99.90;;;;;;5081048;28;20475;-74
2022/12/01 00:44:50;;;;;;;28.83;21.10;;;9.00;99.90;;;;;;5078088;28;20931;-74
2022/12/01 00:47:19;;;;;;;29.27;20.77;;;9.00;99.90;;;;;;5077510;28;20446;-74
2022/12/01 00:49:46;;;;;;;27.40;19.63;;;9.00;99.90;;;;;;5075725;28;20453;-74
2022/12/01 00:52:13;;;;;;;32.60;22.90;;;9.00;99.90;;;;;;5076540;28;20471;-74
2022/12/01 00:54:40;;;;;;;28.77;20.30;;;9.00;99.90;;;;;;5076188;28;20474;-74
2022/12/01 00:57:07;;;;;;;32.17;22.03;;;9.00;99.90;;;;;;5075030;28;20443;-74
2022/12/01 00:59:34;;;;;;;33.37;21.63;;;9.00;99.90;;;;;;5076265;28;20455;-74
2022/12/01 01:02:01;;;;;;;36.10;23.93;;;9.00;99.90;;;;;;5075809;28;20872;-74
2022/12/01 01:04:31;;;;;;;32.77;22.13;;;9.00;99.90;;;;;;5076611;28;20447;-74
2022/12/01 01:06:58;;;;;;;29.47;20.93;;;9.00;99.90;;;;;;5074878;28;20458;-73
2022/12/01 01:09:25;;;;;;;34.17;22.80;;;9.00;99.90;;;;;;5075205;28;20449;-73
2022/12/01 01:11:52;;;;;;;32.77;22.77;;;9.00;99.90;;;;;;5075757;28;20454;-73
2022/12/01 01:14:19;;;;;;;32.53;22.20;;;9.00;99.90;;;;;;5075279;28;20474;-73
2022/12/01 01:16:46;;;;;;;32.20;22.83;;;9.00;99.90;;;;;;5075810;28;20450;-73
2022/12/01 01:19:12;;;;;;;38.47;22.93;;;9.00;99.90;;;;;;5075625;28;20446;-73
2022/12/01 01:21:41;;;;;;;30.40;21.53;;;9.00;99.90;;;;;;5075110;28;20978;-73
2022/12/01 01:24:08;;;;;;;33.30;23.17;;;9.00;99.90;;;;;;5075072;28;20471;-74
2022/12/01 01:26:35;;;;;;;32.97;23.00;;;9.00;99.90;;;;;;5075185;28;20456;-74
2022/12/01 01:29:04;;;;;;;32.63;22.50;;;8.90;99.90;;;;;;5075622;28;20539;-74
2022/12/01 01:31:31;;;;;;;36.53;25.43;;;9.00;99.90;;;;;;5076007;28;20457;-74
2022/12/01 01:33:59;;;;;;;33.10;22.60;;;9.00;99.90;;;;;;5079314;28;20466;-74
2022/12/01 01:36:26;;;;;;;33.57;23.60;;;9.00;99.90;;;;;;5078357;28;20984;-74
2022/12/01 01:38:54;;;;;;;35.20;23.90;;;9.00;99.90;;;;;;5078108;28;20437;-74
2022/12/01 01:41:22;;;;;;;35.87;24.30;;;9.00;99.90;;;;;;5078410;28;20450;-74
2022/12/01 01:43:50;;;;;;;32.47;22.13;;;9.00;99.90;;;;;;5078467;28;20474;-74
2022/12/01 01:46:18;;;;;;;35.50;24.40;;;9.00;99.90;;;;;;5078283;28;20450;-74
2022/12/01 01:48:49;;;;;;;33.00;23.60;;;9.00;99.90;;;;;;5078262;28;20478;-74
2022/12/01 01:51:19;;;;;;;36.73;23.50;;;9.00;99.90;;;;;;5078524;28;20438;-74
2022/12/01 01:53:48;;;;;;;36.90;24.13;;;9.00;99.90;;;;;;5078383;28;20475;-74
2022/12/01 01:56:16;;;;;;;34.17;24.07;;;9.00;99.90;;;;;;5078220;28;20434;-74
2022/12/01 01:58:44;;;;;;;33.00;23.13;;;9.00;99.90;;;;;;5078103;28;20454;-74
2022/12/01 02:01:11;;;;;;;34.60;22.50;;;8.90;99.90;;;;;;5078059;28;20438;-74
2022/12/01 02:03:40;;;;;;;35.73;23.77;;;8.90;99.90;;;;;;5078525;28;20832;-74
2022/12/01 02:06:08;;;;;;;37.97;25.00;;;8.90;99.90;;;;;;5078366;28;20443;-74
2022/12/01 02:08:37;;;;;;;40.20;23.70;;;8.90;99.90;;;;;;5078588;28;20450;-74
2022/12/01 02:11:47;;;;;;;35.63;23.33;;;9.00;99.90;;;;;;5077376;28;20911;-74
2022/12/01 02:14:30;;;;;;;37.00;23.80;;;8.90;99.90;;;;;;5074545;28;20993;-74
2022/12/01 02:17:03;;;;;;;34.73;22.47;;;8.90;99.90;;;;;;5078356;28;20435;-73
2022/12/01 02:19:48;;;;;;;41.83;22.50;;;8.90;99.90;;;;;;5077760;28;20431;-73
2022/12/01 02:22:29;;;;;;;37.93;23.37;;;8.90;99.90;;;;;;5077889;28;20478;-73
2022/12/01 02:25:34;;;;;;;37.97;24.43;;;8.90;99.90;;;;;;5077544;28;20439;-74
2022/12/01 02:28:25;;;;;;;42.77;25.07;;;8.90;99.90;;;;;;5077399;28;20442;-74
2022/12/01 02:30:58;;;;;;;42.90;23.90;;;8.90;99.90;;;;;;5077357;28;20431;-74
2022/12/01 02:33:32;;;;;;;52.67;29.00;;;8.90;99.90;;;;;;5077643;28;20469;-74
2022/12/01 02:36:03;;;;;;;45.50;27.50;;;8.90;99.90;;;;;;5077909;28;20471;-74
2022/12/01 02:38:37;;;;;;;46.90;28.40;;;8.90;99.90;;;;;;5077245;28;20420;-74
2022/12/01 02:41:10;;;;;;;46.33;29.10;;;8.90;99.90;;;;;;5077626;28;20914;-74
2022/12/01 02:43:44;;;;;;;50.40;27.83;;;8.90;99.90;;;;;;5076266;28;20988;-74
2022/12/01 02:46:16;;;;;;;53.97;33.23;;;8.90;99.90;;;;;;5077300;28;20439;-73
2022/12/01 02:48:46;;;;;;;55.73;31.03;;;8.90;99.90;;;;;;5077038;28;20434;-74
2022/12/01 02:51:17;;;;;;;55.53;32.10;;;8.90;99.90;;;;;;5076739;28;20448;-74
2022/12/01 02:53:44;;;;;;;56.73;31.60;;;8.90;99.90;;;;;;5075259;28;20473;-74
2022/12/01 02:56:12;;;;;;;61.47;30.07;;;8.90;99.90;;;;;;5076400;28;20470;-73
2022/12/01 02:58:39;;;;;;;69.00;33.00;;;8.90;99.90;;;;;;5076606;28;20460;-73
2022/12/01 03:01:31;;;;;;;57.10;29.70;;;8.80;99.90;;;;;;5076649;28;20446;-73
2022/12/01 03:04:05;;;;;;;58.60;30.53;;;8.80;99.90;;;;;;5076879;28;20472;-73
2022/12/01 03:06:42;;;;;;;51.47;28.47;;;8.80;99.90;;;;;;5077057;28;20427;-73
2022/12/01 03:09:17;;;;;;;53.67;31.60;;;8.90;99.90;;;;;;5077075;28;20526;-73
2022/12/01 03:11:55;;;;;;;55.50;31.37;;;8.80;99.90;;;;;;5076760;28;20432;-74
2022/12/01 03:14:32;;;;;;;53.97;30.03;;;8.80;99.90;;;;;;5076573;28;20458;-74
2022/12/01 03:17:05;;;;;;;57.37;31.93;;;8.80;99.90;;;;;;5076681;28;20433;-74
2022/12/01 03:19:36;;;;;;;61.50;32.00;;;8.80;99.90;;;;;;5077945;28;20434;-74
2022/12/01 03:22:10;;;;;;;70.83;35.47;;;8.80;99.90;;;;;;5077397;28;20457;-74
2022/12/01 03:24:39;;;;;;;62.90;34.07;;;8.80;99.90;;;;;;5077131;28;20445;-74
2022/12/01 03:27:06;;;;;;;63.27;33.40;;;8.80;99.90;;;;;;5075799;28;20452;-74
2022/12/01 03:29:38;;;;;;;63.60;32.50;;;8.80;99.90;;;;;;5076541;28;20440;-73
2022/12/01 03:32:13;;;;;;;59.77;33.47;;;8.80;99.90;;;;;;5076834;28;20489;-73
2022/12/01 03:34:45;;;;;;;70.60;33.83;;;8.80;99.90;;;;;;5075672;28;20466;-73
2022/12/01 03:37:17;;;;;;;69.47;35.03;;;8.80;99.90;;;;;;5075806;28;20466;-74
2022/12/01 03:39:47;;;;;;;67.73;35.73;;;8.80;99.90;;;;;;5076151;28;20464;-74
2022/12/01 03:42:16;;;;;;;69.40;34.90;;;8.80;99.90;;;;;;5076242;28;20497;-74
2022/12/01 03:44:47;;;;;;;72.40;34.57;;;8.80;99.90;;;;;;5075772;28;20423;-74
2022/12/01 03:47:20;;;;;;;87.13;38.33;;;8.80;99.90;;;;;;5075955;28;20422;-74
2022/12/01 03:49:50;;;;;;;71.77;34.40;;;8.80;99.90;;;;;;5075853;28;20434;-74
2022/12/01 03:52:27;;;;;;;70.87;33.60;;;8.80;99.90;;;;;;5075710;28;20470;-74
2022/12/01 03:55:06;;;;;;;66.90;32.77;;;8.80;99.90;;;;;;5075590;28;20465;-74
2022/12/01 03:57:40;;;;;;;65.70;31.90;;;8.80;99.90;;;;;;5075844;28;20426;-74
2022/12/01 04:00:10;;;;;;;65.93;33.20;;;8.80;99.90;;;;;;5075389;28;20434;-74
2022/12/01 04:02:39;;;;;;;60.67;32.43;;;8.80;99.90;;;;;;5075493;28;20473;-74
2022/12/01 04:05:08;;;;;;;66.43;34.70;;;8.70;99.90;;;;;;5075404;28;20441;-74
2022/12/01 04:07:34;;;;;;;64.30;32.20;;;8.80;99.90;;;;;;5075342;28;20434;-74
2022/12/01 04:10:01;;;;;;;64.53;32.97;;;8.70;99.90;;;;;;5076161;28;20446;-74
2022/12/01 04:12:31;;;;;;;62.70;31.50;;;8.70;99.90;;;;;;5074995;28;20476;-74
2022/12/01 04:14:59;;;;;;;73.20;33.63;;;8.70;99.90;;;;;;5075903;28;20470;-74
2022/12/01 04:17:27;;;;;;;68.57;33.97;;;8.70;99.90;;;;;;5074937;28;20910;-74
2022/12/01 04:19:55;;;;;;;70.13;35.33;;;8.80;99.90;;;;;;5075350;28;20450;-74
2022/12/01 04:22:23;;;;;;;71.57;33.07;;;8.70;99.90;;;;;;5074895;28;20472;-74
2022/12/01 04:24:49;;;;;;;60.60;32.63;;;8.70;99.90;;;;;;5074419;28;20937;-74
2022/12/01 04:27:16;;;;;;;60.63;32.20;;;8.70;99.90;;;;;;5075040;28;20453;-74
2022/12/01 04:29:43;;;;;;;62.10;31.60;;;8.70;99.90;;;;;;5074906;28;20444;-74
2022/12/01 04:32:09;;;;;;;57.00;33.50;;;8.70;99.90;;;;;;5075691;28;20442;-74
2022/12/01 04:34:36;;;;;;;55.30;30.10;;;8.70;99.90;;;;;;5073941;28;20454;-72
2022/12/01 04:37:06;;;;;;;59.23;29.30;;;8.70;99.90;;;;;;5073445;28;20499;-71
2022/12/01 04:39:32;;;;;;;64.77;32.93;;;8.70;99.90;;;;;;5073558;28;20445;-71
2022/12/01 04:41:59;;;;;;;57.07;29.60;;;8.70;99.90;;;;;;5073696;28;20447;-71
2022/12/01 04:44:26;;;;;;;62.80;32.60;;;8.70;99.90;;;;;;5073171;28;20942;-71
2022/12/01 04:46:53;;;;;;;71.67;36.20;;;8.80;99.90;;;;;;5073409;28;20492;-71
2022/12/01 04:49:21;;;;;;;80.17;41.10;;;8.70;99.90;;;;;;5072978;28;20455;-71
2022/12/01 04:51:49;;;;;;;94.30;42.70;;;8.80;99.90;;;;;;5073011;28;20503;-71
2022/12/01 04:54:17;;;;;;;82.57;41.20;;;8.80;99.90;;;;;;5072952;28;20450;-72
2022/12/01 04:56:44;;;;;;;111.10;44.57;;;8.80;99.90;;;;;;5072792;28;20548;-72
2022/12/01 04:59:11;;;;;;;98.03;44.30;;;8.80;99.90;;;;;;5074719;28;20451;-72
2022/12/01 05:01:38;;;;;;;98.00;46.33;;;8.80;99.90;;;;;;5074443;28;20454;-72
2022/12/01 05:04:05;;;;;;;95.97;40.80;;;8.70;99.90;;;;;;5074828;28;20470;-72
2022/12/01 05:06:32;;;;;;;90.73;41.20;;;8.80;99.90;;;;;;5075413;28;20451;-73
2022/12/01 05:09:00;;;;;;;71.10;36.20;;;8.80;99.90;;;;;;5078439;28;20471;-73
2022/12/01 05:11:30;;;;;;;72.77;36.87;;;8.80;99.90;;;;;;5078399;28;20461;-73
2022/12/01 05:13:57;;;;;;;70.03;33.97;;;8.80;99.90;;;;;;5078517;28;20859;-73
2022/12/01 05:16:25;;;;;;;60.20;32.17;;;8.70;99.90;;;;;;5078724;28;20481;-73
2022/12/01 05:20:55;;;;;;;60.37;33.00;;;8.70;99.90;;;;;;5078469;28;20969;-73
2022/12/01 05:21:42;;;;;;;58.20;31.60;;;8.70;99.90;;;;;;5078413;28;20471;-73
2022/12/01 05:24:09;;;;;;;55.80;29.53;;;8.70;99.90;;;;;;5078866;28;20469;-73
2022/12/01 05:26:38;;;;;;;61.43;29.40;;;8.70;99.90;;;;;;5079221;28;20808;-73
2022/12/01 05:29:05;;;;;;;46.37;26.97;;;8.80;99.90;;;;;;5078939;28;20444;-73
2022/12/01 05:31:32;;;;;;;49.43;27.30;;;8.70;99.90;;;;;;5078888;28;20451;-73
2022/12/01 05:33:59;;;;;;;48.47;26.50;;;8.70;99.90;;;;;;5079010;28;20472;-73
2022/12/01 05:36:26;;;;;;;44.50;26.43;;;8.70;99.90;;;;;;5078728;28;20512;-73
2022/12/01 05:38:53;;;;;;;41.50;24.20;;;8.70;99.90;;;;;;5079260;28;20778;-74
2022/12/01 05:41:20;;;;;;;39.20;23.23;;;8.70;99.90;;;;;;5079554;28;20482;-73
2022/12/01 05:43:48;;;;;;;48.17;26.07;;;8.80;99.90;;;;;;5078007;28;20832;-72
2022/12/01 05:46:15;;;;;;;41.80;26.03;;;8.70;99.90;;;;;;5077100;28;20447;-73
2022/12/01 05:48:42;;;;;;;46.20;27.80;;;8.70;99.90;;;;;;5076506;28;20453;-73
2022/12/01 05:51:09;;;;;;;43.33;26.40;;;8.70;99.90;;;;;;5059939;28;20450;-73
2022/12/01 05:53:36;;;;;;;38.03;25.13;;;8.70;99.90;;;;;;5077675;28;20466;-73
2022/12/01 05:56:03;;;;;;;42.40;27.13;;;8.70;99.90;;;;;;5077655;28;20488;-73
2022/12/01 05:58:30;;;;;;;39.33;26.43;;;8.60;99.90;;;;;;5077581;28;20450;-73
2022/12/01 06:00:58;;;;;;;40.27;26.03;;;8.60;99.90;;;;;;5077227;28;20793;-73
2022/12/01 06:03:25;;;;;;;40.97;26.30;;;8.60;99.90;;;;;;5076953;28;20475;-73
2022/12/01 06:05:52;;;;;;;34.87;24.23;;;8.60;99.90;;;;;;5077332;28;20455;-73
2022/12/01 06:08:19;;;;;;;47.37;26.27;;;8.60;99.90;;;;;;5077557;28;20451;-73
2022/12/01 06:10:46;;;;;;;35.90;24.50;;;8.60;99.90;;;;;;5077407;28;20459;-73
2022/12/01 06:13:13;;;;;;;40.70;25.70;;;8.60;99.90;;;;;;5077149;28;20469;-73
2022/12/01 06:15:39;;;;;;;39.20;25.03;;;8.60;99.90;;;;;;5076960;28;20474;-73
2022/12/01 06:18:08;;;;;;;41.73;26.70;;;8.60;99.90;;;;;;5076421;28;20444;-73
2022/12/01 06:20:34;;;;;;;42.90;28.00;;;8.60;99.90;;;;;;5077107;28;20451;-73
2022/12/01 06:23:01;;;;;;;44.40;27.67;;;8.70;99.90;;;;;;5077097;28;20465;-73
2022/12/01 06:25:28;;;;;;;43.40;25.70;;;8.60;99.90;;;;;;5076648;28;20448;-73
2022/12/01 06:27:56;;;;;;;46.60;27.90;;;8.60;99.90;;;;;;5077266;28;20457;-73
2022/12/01 06:30:23;;;;;;;53.77;28.37;;;8.60;99.90;;;;;;5076451;28;20948;-73
2022/12/01 06:32:49;;;;;;;56.23;28.20;;;8.60;99.90;;;;;;5076592;28;20817;-73
2022/12/01 06:35:17;;;;;;;49.80;28.17;;;8.60;99.90;;;;;;5076783;28;20434;-73
2022/12/01 06:37:44;;;;;;;55.93;30.50;;;8.70;99.90;;;;;;5076947;28;20969;-73
2022/12/01 06:40:12;;;;;;;50.10;29.23;;;8.70;99.90;;;;;;5076606;28;20451;-73
2022/12/01 06:42:39;;;;;;;51.83;30.43;;;8.70;99.90;;;;;;5076383;28;20470;-73
2022/12/01 06:45:06;;;;;;;46.27;30.03;;;8.70;99.90;;;;;;5076511;28;20488;-73
2022/12/01 06:47:33;;;;;;;60.17;33.30;;;8.70;99.90;;;;;;5076158;28;20929;-73
2022/12/01 06:50:00;;;;;;;58.77;32.97;;;8.70;99.90;;;;;;5076316;28;20446;-73
2022/12/01 06:52:28;;;;;;;55.30;31.53;;;8.60;99.90;;;;;;5076448;28;20472;-73
2022/12/01 06:54:55;;;;;;;54.67;33.13;;;8.60;99.90;;;;;;5076884;28;20450;-73
2022/12/01 06:57:21;;;;;;;61.63;33.27;;;8.70;99.90;;;;;;5076607;28;21012;-73
2022/12/01 06:59:48;;;;;;;58.63;32.20;;;8.60;99.90;;;;;;5076516;28;20446;-73
2022/12/01 07:02:15;;;;;;;55.57;31.90;;;8.70;99.90;;;;;;5076107;28;20540;-73
2022/12/01 07:04:42;;;;;;;66.23;34.97;;;8.70;99.90;;;;;;5076312;28;20454;-73
2022/12/01 07:07:10;;;;;;;60.37;31.40;;;8.70;99.90;;;;;;5076372;28;20446;-73
2022/12/01 07:09:38;;;;;;;65.90;34.13;;;8.70;99.90;;;;;;5075781;28;20540;-73
2022/12/01 07:12:05;;;;;;;63.60;32.27;;;8.70;99.90;;;;;;5075928;28;20434;-73
2022/12/01 07:14:31;;;;;;;50.83;29.43;;;8.70;99.90;;;;;;5076321;28;20484;-73
2022/12/01 07:16:58;;;;;;;61.90;33.37;;;8.70;99.90;;;;;;5076471;28;20477;-73
2022/12/01 07:19:25;;;;;;;62.70;32.97;;;8.70;99.90;;;;;;5076239;28;20455;-73
2022/12/01 07:21:52;;;;;;;53.00;29.80;;;8.70;99.90;;;;;;5075707;28;20451;-73
2022/12/01 07:24:18;;;;;;;59.17;32.70;;;8.60;99.90;;;;;;5075740;28;20453;-73
2022/12/01 07:26:47;;;;;;;51.00;30.20;;;8.60;99.90;;;;;;5075529;28;20821;-73
2022/12/01 07:29:13;;;;;;;54.83;29.40;;;8.60;99.90;;;;;;5075221;28;20452;-73
2022/12/01 07:31:40;;;;;;;54.13;31.40;;;8.70;99.90;;;;;;5075410;28;20971;-73
2022/12/01 07:34:07;;;;;;;50.10;29.60;;;8.70;99.90;;;;;;5075087;28;20474;-73
2022/12/01 07:36:33;;;;;;;49.63;29.07;;;8.70;99.90;;;;;;5075452;28;20496;-73
2022/12/01 07:39:03;;;;;;;60.60;33.90;;;8.70;99.90;;;;;;5075790;28;20450;-73
2022/12/01 07:41:30;;;;;;;53.83;29.97;;;8.70;99.90;;;;;;5076628;28;20451;-73
2022/12/01 07:43:59;;;;;;;52.63;30.37;;;8.70;99.90;;;;;;5075492;28;20466;-73
2022/12/01 07:46:27;;;;;;;47.27;27.70;;;8.70;99.90;;;;;;5075948;28;20449;-73
2022/12/01 07:48:55;;;;;;;53.27;29.13;;;8.70;99.90;;;;;;5075213;28;20801;-73
2022/12/01 07:51:23;;;;;;;49.07;29.60;;;8.60;99.90;;;;;;5074919;28;20949;-73
2022/12/01 07:53:50;;;;;;;51.70;30.83;;;8.70;99.90;;;;;;5075243;28;20476;-73
2022/12/01 07:56:18;;;;;;;45.77;28.13;;;8.60;99.90;;;;;;5075081;28;20493;-73
2022/12/01 07:58:45;;;;;;;53.60;29.80;;;8.60;99.90;;;;;;5074590;28;20951;-73
2022/12/01 08:01:15;;;;;;;49.53;30.20;;;8.60;99.90;;;;;;5074540;28;20939;-73
2022/12/01 08:03:42;;;;;;;47.43;28.57;;;8.60;99.90;;;;;;5075208;28;20522;-73
2022/12/01 08:06:10;;;;;;;47.60;28.90;;;8.60;99.90;;;;;;5074870;28;20468;-73
2022/12/01 08:08:38;;;;;;;46.20;26.83;;;8.70;99.90;;;;;;5074708;28;20500;-72
2022/12/01 08:11:06;;;;;;;48.20;27.03;;;8.70;99.90;;;;;;5075261;28;20432;-72
2022/12/01 08:13:33;;;;;;;47.47;28.27;;;8.70;99.90;;;;;;5074825;28;20466;-73
2022/12/01 08:16:03;;;;;;;44.70;28.07;;;8.70;99.90;;;;;;5074917;28;20485;-73
2022/12/01 08:18:34;;;;;;;44.60;27.53;;;8.80;99.90;;;;;;5074832;28;20474;-73
2022/12/01 08:21:01;;;;;;;50.73;28.73;;;8.70;99.90;;;;;;5074854;28;20438;-73
2022/12/01 08:23:27;;;;;;;44.83;27.20;;;8.70;99.90;;;;;;5074949;28;20474;-73
2022/12/01 08:25:56;;;;;;;54.80;30.30;;;8.70;99.90;;;;;;5074638;28;20455;-73
2022/12/01 08:28:23;;;;;;;50.30;29.10;;;8.70;99.90;;;;;;5074530;28;20457;-73
2022/12/01 08:30:49;;;;;;;52.03;30.10;;;8.70;99.90;;;;;;5074823;28;20456;-73
2022/12/01 08:33:16;;;;;;;52.03;29.90;;;8.70;99.90;;;;;;5074451;28;20989;-73
2022/12/01 08:35:44;;;;;;;54.97;29.97;;;8.70;99.90;;;;;;5074691;28;20447;-73
2022/12/01 08:38:11;;;;;;;55.23;31.00;;;8.70;99.90;;;;;;5074441;28;20981;-73
2022/12/01 08:40:38;;;;;;;50.03;29.17;;;8.80;99.90;;;;;;5073739;28;20455;-73
2022/12/01 08:43:04;;;;;;;56.27;28.87;;;8.80;99.90;;;;;;5076843;28;20997;-73
2022/12/01 08:45:31;;;;;;;54.23;30.80;;;8.80;99.90;;;;;;5078467;28;20432;-73
2022/12/01 08:47:58;;;;;;;54.60;29.73;;;8.80;99.90;;;;;;5078477;28;20446;-73
2022/12/01 08:50:26;;;;;;;55.03;30.33;;;8.90;99.90;;;;;;5078833;28;20443;-73
2022/12/01 08:52:54;;;;;;;59.30;32.83;;;8.80;99.90;;;;;;5078290;28;20563;-73
2022/12/01 08:55:21;;;;;;;55.60;31.10;;;8.80;99.90;;;;;;5077745;28;20985;-73
2022/12/01 08:57:48;;;;;;;62.83;30.27;;;8.90;99.90;;;;;;5078153;28;21013;-73
2022/12/01 09:00:16;;;;;;;49.80;29.77;;;8.90;99.90;;;;;;5078414;28;20447;-73
2022/12/01 09:02:42;;;;;;;66.63;33.73;;;8.90;99.90;;;;;;5077883;28;20808;-73
2022/12/01 09:05:10;;;;;;;60.00;31.83;;;8.90;99.90;;;;;;5077957;28;20954;-73
2022/12/01 09:07:37;;;;;;;64.10;33.13;;;8.90;99.90;;;;;;5077800;28;20451;-73
2022/12/01 09:10:06;;;;;;;65.50;33.73;;;9.00;99.90;;;;;;5077689;28;20450;-73
2022/12/01 09:12:33;;;;;;;65.00;34.30;;;8.90;99.90;;;;;;5077772;28;20465;-73
2022/12/01 09:15:01;;;;;;;60.90;32.60;;;8.90;99.90;;;;;;5077353;28;20454;-73
2022/12/01 09:17:28;;;;;;;72.20;32.27;;;8.90;99.90;;;;;;5078848;28;20484;-73
2022/12/01 09:19:55;;;;;;;61.13;31.20;;;8.90;99.90;;;;;;5077574;28;20475;-72
2022/12/01 09:22:21;;;;;;;60.40;32.27;;;8.90;99.90;;;;;;5077767;28;20467;-73
2022/12/01 09:24:48;;;;;;;59.33;32.37;;;8.90;99.90;;;;;;5077097;28;20964;-73
2022/12/01 09:27:16;;;;;;;61.50;33.13;;;9.00;99.90;;;;;;5077769;28;20440;-73
2022/12/01 09:29:44;;;;;;;61.07;33.67;;;9.00;99.90;;;;;;5077911;28;20791;-73
2022/12/01 09:32:11;;;;;;;75.27;34.67;;;9.00;99.90;;;;;;5077480;28;20480;-73
2022/12/01 09:34:37;;;;;;;61.10;32.60;;;9.00;99.90;;;;;;5078285;28;20457;-74
2022/12/01 09:37:05;;;;;;;67.03;34.00;;;9.00;99.90;;;;;;5077313;28;20486;-73
2022/12/01 09:39:32;;;;;;;66.70;33.97;;;9.00;99.90;;;;;;5077407;28;20534;-74
2022/12/01 09:42:03;;;;;;;65.10;33.47;;;9.00;99.90;;;;;;5077067;28;20451;-73
2022/12/01 09:44:37;;;;;;;61.10;33.63;;;9.00;99.90;;;;;;5077649;28;20432;-73
2022/12/01 09:47:11;;;;;;;65.90;32.43;;;9.00;99.90;;;;;;5078028;28;20434;-73
2022/12/01 09:49:47;;;;;;;62.40;31.80;;;9.00;99.90;;;;;;5078080;28;20906;-73
2022/12/01 09:52:16;;;;;;;57.53;30.73;;;9.10;99.90;;;;;;5078244;28;20470;-73
2022/12/01 09:54:43;;;;;;;67.30;35.80;;;9.10;99.90;;;;;;5078786;28;20432;-73
2022/12/01 09:57:17;;;;;;;60.83;33.57;;;9.10;99.90;;;;;;5081376;28;20525;-72
2022/12/01 09:59:46;;;;;;;61.70;31.70;;;9.10;99.90;;;;;;5081028;28;20454;-72
2022/12/01 10:02:26;;;;;;;64.20;33.97;;;9.10;99.90;;;;;;5079157;28;20469;-72
2022/12/01 10:04:55;;;;;;;63.30;34.37;;;9.10;99.90;;;;;;5077691;28;20435;-72
2022/12/01 10:07:24;;;;;;;65.13;34.50;;;9.10;99.90;;;;;;5059214;28;20442;-72
2022/12/01 10:09:56;;;;;;;60.10;33.87;;;9.10;99.90;;;;;;5077165;28;20447;-72
2022/12/01 10:12:26;;;;;;;63.57;34.33;;;9.20;99.90;;;;;;5076607;28;20470;-72
2022/12/01 10:15:02;;;;;;;56.80;32.97;;;9.20;99.90;;;;;;5076480;28;20439;-73
2022/12/01 10:17:37;;;;;;;60.33;33.43;;;9.20;99.90;;;;;;5075788;28;20992;-73
2022/12/01 10:20:12;;;;;;;65.47;35.40;;;9.10;99.90;;;;;;5076471;28;20435;-73
2022/12/01 10:22:58;;;;;;;59.63;33.17;;;9.10;99.90;;;;;;5075834;28;20469;-73
2022/12/01 10:25:27;;;;;;;61.60;32.07;;;9.20;99.90;;;;;;5076521;28;20433;-73
2022/12/01 10:28:13;;;;;;;64.50;34.53;;;9.20;99.90;;;;;;5075637;28;20942;-73
2022/12/01 10:30:50;;;;;;;57.10;33.13;;;9.20;99.90;;;;;;5076404;28;20432;-73
2022/12/01 10:33:22;;;;;;;53.97;32.17;;;9.20;99.90;;;;;;5076219;28;20561;-73
2022/12/01 10:35:49;;;;;;;61.73;33.67;;;9.20;99.90;;;;;;5076123;28;20461;-73
2022/12/01 10:38:25;;;;;;;57.10;33.67;;;9.20;99.90;;;;;;5075488;28;20487;-73
2022/12/01 10:40:53;;;;;;;63.03;35.27;;;9.20;99.90;;;;;;5076097;28;20560;-73
2022/12/01 10:43:25;;;;;;;54.53;32.50;;;9.20;99.90;;;;;;5076158;28;20475;-73
2022/12/01 10:45:54;;;;;;;69.07;35.10;;;9.20;99.90;;;;;;5075976;28;20428;-73
2022/12/01 10:48:22;;;;;;;62.57;35.60;;;9.20;99.90;;;;;;5075779;28;20526;-73
2022/12/01 10:50:51;;;;;;;64.57;34.13;;;9.20;99.90;;;;;;5076027;28;20454;-73
2022/12/01 10:53:28;;;;;;;67.13;36.67;;;9.30;99.90;;;;;;5075597;28;20468;-73
2022/12/01 10:56:04;;;;;;;68.57;34.67;;;9.30;99.90;;;;;;5075459;28;20521;-73
2022/12/01 10:58:32;;;;;;;69.63;36.30;;;9.30;99.90;;;;;;5075544;28;20466;-74
2022/12/01 11:01:03;;;;;;;66.00;36.00;;;9.30;99.90;;;;;;5075711;28;20470;-73
2022/12/01 11:03:32;;;;;;;51.43;32.40;;;9.30;99.80;;;;;;5075186;28;20978;-73
2022/12/01 11:06:01;;;;;;;55.83;32.37;;;9.30;99.80;;;;;;5074490;28;20443;-73
2022/12/01 11:08:36;;;;;;;51.90;30.80;;;9.30;99.80;;;;;;5075430;28;20447;-74
2022/12/01 11:11:03;;;;;;;51.90;30.73;;;9.30;99.80;;;;;;5075692;28;20432;-73
2022/12/01 11:13:33;;;;;;;57.93;32.23;;;9.30;99.80;;;;;;5075460;28;20489;-73
2022/12/01 11:16:04;;;;;;;49.17;31.20;;;9.30;99.80;;;;;;5075275;28;20910;-73
2022/12/01 11:18:33;;;;;;;52.93;30.70;;;9.30;99.70;;;;;;5075315;28;20482;-73
2022/12/01 11:21:09;;;;;;;54.63;32.53;;;9.30;99.60;;;;;;5075505;28;20458;-73
2022/12/01 11:23:37;;;;;;;54.40;32.50;;;9.40;99.60;;;;;;5075456;28;20474;-73
2022/12/01 11:26:11;;;;;;;61.87;35.50;;;9.30;99.50;;;;;;5075324;28;20452;-73
2022/12/01 11:28:42;;;;;;;64.10;36.90;;;9.30;99.40;;;;;;5075351;28;20469;-73
2022/12/01 11:31:11;;;;;;;71.00;36.50;;;9.30;99.40;;;;;;5075461;28;20792;-73
2022/12/01 11:33:45;;;;;;;65.83;36.63;;;9.30;99.60;;;;;;5075074;28;21053;-73
2022/12/01 11:36:21;;;;;;;60.97;33.10;;;9.30;99.70;;;;;;5078975;28;20446;-73
2022/12/01 11:38:48;;;;;;;68.03;34.23;;;9.40;99.70;;;;;;5077940;28;20478;-73
2022/12/01 11:41:28;;;;;;;58.53;33.90;;;9.50;99.70;;;;;;5077176;28;20442;-73
2022/12/01 11:43:55;;;;;;;55.40;32.63;;;9.50;99.60;;;;;;5076502;28;20477;-73
2022/12/01 11:46:31;;;;;;;53.20;31.30;;;9.50;99.50;;;;;;5077911;28;20897;-73
2022/12/01 11:48:59;;;;;;;52.70;30.40;;;9.50;99.30;;;;;;5076864;28;20435;-73
2022/12/01 11:51:30;;;;;;;50.30;31.07;;;9.50;99.30;;;;;;5076131;28;20442;-73
2022/12/01 11:54:07;;;;;;;50.70;30.00;;;9.50;99.20;;;;;;5076247;28;20472;-73
2022/12/01 11:56:34;;;;;;;51.90;29.80;;;9.40;99.00;;;;;;5075276;28;20924;-73
2022/12/01 11:59:03;;;;;;;47.60;30.67;;;9.40;99.00;;;;;;5076195;28;20492;-73
2022/12/01 12:01:45;;;;;;;44.33;28.83;;;9.40;99.10;;;;;;5076607;28;20436;-73
2022/12/01 12:04:27;;;;;;;48.37;29.57;;;9.40;99.10;;;;;;5074805;28;21014;-73
2022/12/01 12:07:01;;;;;;;40.47;25.47;;;9.40;99.10;;;;;;5075346;28;20435;-73
2022/12/01 12:09:54;;;;;;;41.70;26.47;;;9.30;98.90;;;;;;5075232;28;20442;-73
2022/12/01 12:12:33;;;;;;;36.60;24.07;;;9.20;98.90;;;;;;5075598;28;20471;-73
2022/12/01 12:15:11;;;;;;;46.43;28.70;;;9.20;99.00;;;;;;5075351;28;20431;-73
2022/12/01 12:18:12;;;;;;;37.80;24.90;;;9.20;99.10;;;;;;5075345;28;20542;-74
2022/12/01 12:20:56;;;;;;;38.03;24.80;;;9.20;99.20;;;;;;5075511;28;20430;-74
2022/12/01 12:23:45;;;;;;;34.90;22.80;;;9.20;99.10;;;;;;5074239;28;20841;-74
2022/12/01 12:26:18;;;;;;;39.80;23.70;;;9.20;99.10;;;;;;5074450;28;20446;-73
2022/12/01 12:29:14;;;;;;;36.47;23.13;;;9.30;99.20;;;;;;5075178;28;20454;-74
2022/12/01 12:31:56;;;;;;;38.83;22.30;;;9.40;99.20;;;;;;5074934;28;20428;-74
2022/12/01 12:34:37;;;;;;;32.90;21.97;;;9.40;99.10;;;;;;5074769;28;20434;-73
2022/12/01 12:37:13;;;;;;;36.97;24.50;;;9.50;99.00;;;;;;5074531;28;20455;-73
2022/12/01 12:40:09;;;;;;;36.00;23.40;;;9.50;98.90;;;;;;5075489;28;20498;-73
2022/12/01 12:42:46;;;;;;;38.37;23.33;;;9.50;98.80;;;;;;5074811;28;20472;-73
2022/12/01 12:45:23;;;;;;;32.13;22.10;;;9.50;98.70;;;;;;5075188;28;20445;-73
2022/12/01 12:48:05;;;;;;;30.83;21.00;;;9.40;98.50;;;;;;5074747;28;20438;-73
2022/12/01 12:50:42;;;;;;;32.43;21.97;;;9.40;98.60;;;;;;5074402;28;20431;-73
2022/12/01 12:53:15;;;;;;;29.93;20.67;;;9.40;98.40;;;;;;5074478;28;20561;-74